sensor_id;sensor_type;location;lat;lon;timestamp;P1;durP1;ratioP1;P2;durP2;ratioP2
22060;SDS011;11194;48.092;-1.382;2023-02-04T00:01:07;11.90;;;10.75;;
22060;SDS011;11194;48.092;-1.382;2023-02-04T00:03:33;12.85;;;10.73;;
22060;SDS011;11194;48.092;-1.382;2023-02-04T00:05:59;13.90;;;9.80;;
22060;SDS011;11194;48.092;-1.382;2023-02-04T00:08:25;10.98;;;9.35;;
22060;SDS011;11194;48.092;-1.382;2023-02-04T00:10:51;10.15;;;9.05;;
22060;SDS011;11194;48.092;-1.382;2023-02-04T00:13:17;9.45;;;8.32;;
22060;SDS011;11194;48.092;-1.382;2023-02-04T00:15:43;8.65;;;7.95;;
22060;SDS011;11194;48.092;-1.382;2023-02-04T00:18:09;10.63;;;9.38;;
22060;SDS011;11194;48.092;-1.382;2023-02-04T00:20:35;11.95;;;10.20;;
22060;SDS011;11194;48.092;-1.382;2023-02-04T00:23:01;10.65;;;9.73;;
22060;SDS011;11194;48.092;-1.382;2023-02-04T00:25:27;9.93;;;9.15;;
22060;SDS011;11194;48.092;-1.382;2023-02-04T00:27:53;12.98;;;11.50;;
22060;SDS011;11194;48.092;-1.382;2023-02-04T00:30:19;10.45;;;9.60;;
22060;SDS011;11194;48.092;-1.382;2023-02-04T00:32:45;11.70;;;10.73;;
22060;SDS011;11194;48.092;-1.382;2023-02-04T00:35:12;11.13;;;10.02;;
22060;SDS011;11194;48.092;-1.382;2023-02-04T00:37:38;14.32;;;13.13;;
22060;SDS011;11194;48.092;-1.382;2023-02-04T00:40:04;15.18;;;13.98;;
22060;SDS011;11194;48.092;-1.382;2023-02-04T00:42:30;16.67;;;15.52;;
22060;SDS011;11194;48.092;-1.382;2023-02-04T00:44:56;17.98;;;16.67;;
22060;SDS011;11194;48.092;-1.382;2023-02-04T00:47:22;18.38;;;17.05;;
22060;SDS011;11194;48.092;-1.382;2023-02-04T00:49:48;19.23;;;17.85;;
22060;SDS011;11194;48.092;-1.382;2023-02-04T00:52:14;19.30;;;17.90;;
22060;SDS011;11194;48.092;-1.382;2023-02-04T00:54:40;19.05;;;17.85;;
22060;SDS011;11194;48.092;-1.382;2023-02-04T00:57:06;22.15;;;20.63;;
22060;SDS011;11194;48.092;-1.382;2023-02-04T00:59:32;23.85;;;22.25;;
22060;SDS011;11194;48.092;-1.382;2023-02-04T01:01:58;23.02;;;21.42;;
22060;SDS011;11194;48.092;-1.382;2023-02-04T01:04:25;20.75;;;19.42;;
22060;SDS011;11194;48.092;-1.382;2023-02-04T01:06:52;24.13;;;22.50;;
22060;SDS011;11194;48.092;-1.382;2023-02-04T01:09:18;26.17;;;24.58;;
22060;SDS011;11194;48.092;-1.382;2023-02-04T01:11:44;28.52;;;26.70;;
22060;SDS011;11194;48.092;-1.382;2023-02-04T01:14:10;28.90;;;27.23;;
22060;SDS011;11194;48.092;-1.382;2023-02-04T01:16:36;28.40;;;26.85;;
22060;SDS011;11194;48.092;-1.382;2023-02-04T01:19:02;29.83;;;27.92;;
22060;SDS011;11194;48.092;-1.382;2023-02-04T01:21:28;32.72;;;30.63;;
22060;SDS011;11194;48.092;-1.382;2023-02-04T01:23:54;27.90;;;26.25;;
22060;SDS011;11194;48.092;-1.382;2023-02-04T01:26:20;28.98;;;26.90;;
22060;SDS011;11194;48.092;-1.382;2023-02-04T01:28:46;24.40;;;22.85;;
22060;SDS011;11194;48.092;-1.382;2023-02-04T01:31:12;23.88;;;22.17;;
22060;SDS011;11194;48.092;-1.382;2023-02-04T01:33:39;23.75;;;22.05;;
22060;SDS011;11194;48.092;-1.382;2023-02-04T01:36:05;28.73;;;26.90;;
22060;SDS011;11194;48.092;-1.382;2023-02-04T01:38:31;27.38;;;25.77;;
22060;SDS011;11194;48.092;-1.382;2023-02-04T01:40:57;29.55;;;27.55;;
22060;SDS011;11194;48.092;-1.382;2023-02-04T01:43:23;27.17;;;25.58;;
22060;SDS011;11194;48.092;-1.382;2023-02-04T01:45:50;29.90;;;27.77;;
22060;SDS011;11194;48.092;-1.382;2023-02-04T01:48:16;27.80;;;26.10;;
22060;SDS011;11194;48.092;-1.382;2023-02-04T01:50:47;28.35;;;26.35;;
22060;SDS011;11194;48.092;-1.382;2023-02-04T01:53:15;33.08;;;30.55;;
22060;SDS011;11194;48.092;-1.382;2023-02-04T01:55:43;31.45;;;29.25;;
22060;SDS011;11194;48.092;-1.382;2023-02-04T01:58:09;27.42;;;25.52;;
22060;SDS011;11194;48.092;-1.382;2023-02-04T02:00:37;27.67;;;25.35;;
22060;SDS011;11194;48.092;-1.382;2023-02-04T02:03:04;27.33;;;25.25;;
22060;SDS011;11194;48.092;-1.382;2023-02-04T02:08:02;22.92;;;21.20;;
22060;SDS011;11194;48.092;-1.382;2023-02-04T02:10:29;22.95;;;21.15;;
22060;SDS011;11194;48.092;-1.382;2023-02-04T02:12:55;21.98;;;20.13;;
22060;SDS011;11194;48.092;-1.382;2023-02-04T02:15:22;21.70;;;20.10;;
22060;SDS011;11194;48.092;-1.382;2023-02-04T02:17:49;21.27;;;19.98;;
22060;SDS011;11194;48.092;-1.382;2023-02-04T02:20:16;19.33;;;18.00;;
22060;SDS011;11194;48.092;-1.382;2023-02-04T02:25:12;19.90;;;18.38;;
22060;SDS011;11194;48.092;-1.382;2023-02-04T02:27:38;20.25;;;18.80;;
22060;SDS011;11194;48.092;-1.382;2023-02-04T05:02:49;14.77;;;13.43;;
22060;SDS011;11194;48.092;-1.382;2023-02-04T05:05:15;15.82;;;14.35;;
22060;SDS011;11194;48.092;-1.382;2023-02-04T05:07:41;14.07;;;12.77;;
22060;SDS011;11194;48.092;-1.382;2023-02-04T05:10:07;13.25;;;11.98;;
22060;SDS011;11194;48.092;-1.382;2023-02-04T05:12:34;13.88;;;12.57;;
22060;SDS011;11194;48.092;-1.382;2023-02-04T05:15:00;14.55;;;13.05;;
22060;SDS011;11194;48.092;-1.382;2023-02-04T05:17:26;13.63;;;11.68;;
22060;SDS011;11194;48.092;-1.382;2023-02-04T05:19:52;12.65;;;11.35;;
22060;SDS011;11194;48.092;-1.382;2023-02-04T05:22:18;12.30;;;11.15;;
22060;SDS011;11194;48.092;-1.382;2023-02-04T05:24:44;12.57;;;11.32;;
22060;SDS011;11194;48.092;-1.382;2023-02-04T05:27:10;13.25;;;11.02;;
22060;SDS011;11194;48.092;-1.382;2023-02-04T05:29:36;12.07;;;10.48;;
22060;SDS011;11194;48.092;-1.382;2023-02-04T05:32:02;13.02;;;10.48;;
22060;SDS011;11194;48.092;-1.382;2023-02-04T05:34:28;13.10;;;11.68;;
22060;SDS011;11194;48.092;-1.382;2023-02-04T05:36:54;13.48;;;12.07;;
22060;SDS011;11194;48.092;-1.382;2023-02-04T05:39:21;12.82;;;11.73;;
22060;SDS011;11194;48.092;-1.382;2023-02-04T05:41:47;15.30;;;13.90;;
22060;SDS011;11194;48.092;-1.382;2023-02-04T05:44:13;15.55;;;14.25;;
22060;SDS011;11194;48.092;-1.382;2023-02-04T05:46:39;15.45;;;14.27;;
22060;SDS011;11194;48.092;-1.382;2023-02-04T05:49:05;16.40;;;15.15;;
22060;SDS011;11194;48.092;-1.382;2023-02-04T05:51:32;17.58;;;15.98;;
22060;SDS011;11194;48.092;-1.382;2023-02-04T05:53:58;17.60;;;16.10;;
22060;SDS011;11194;48.092;-1.382;2023-02-04T05:56:24;18.58;;;16.88;;
22060;SDS011;11194;48.092;-1.382;2023-02-04T05:58:50;18.17;;;16.58;;
22060;SDS011;11194;48.092;-1.382;2023-02-04T06:01:16;18.83;;;17.27;;
22060;SDS011;11194;48.092;-1.382;2023-02-04T06:03:42;18.80;;;17.40;;
22060;SDS011;11194;48.092;-1.382;2023-02-04T06:06:08;18.77;;;17.00;;
22060;SDS011;11194;48.092;-1.382;2023-02-04T06:08:34;19.08;;;17.52;;
22060;SDS011;11194;48.092;-1.382;2023-02-04T06:11:00;17.55;;;16.23;;
22060;SDS011;11194;48.092;-1.382;2023-02-04T06:13:27;19.55;;;17.95;;
22060;SDS011;11194;48.092;-1.382;2023-02-04T06:15:54;18.67;;;16.90;;
22060;SDS011;11194;48.092;-1.382;2023-02-04T06:18:20;18.85;;;17.15;;
22060;SDS011;11194;48.092;-1.382;2023-02-04T06:20:46;18.25;;;16.90;;
22060;SDS011;11194;48.092;-1.382;2023-02-04T06:23:12;19.27;;;17.58;;
22060;SDS011;11194;48.092;-1.382;2023-02-04T06:25:38;16.85;;;15.55;;
22060;SDS011;11194;48.092;-1.382;2023-02-04T06:28:04;18.30;;;16.77;;
22060;SDS011;11194;48.092;-1.382;2023-02-04T06:30:30;16.23;;;14.88;;
22060;SDS011;11194;48.092;-1.382;2023-02-04T06:32:56;15.52;;;14.32;;
22060;SDS011;11194;48.092;-1.382;2023-02-04T06:35:22;14.10;;;13.00;;
22060;SDS011;11194;48.092;-1.382;2023-02-04T06:37:48;13.55;;;12.68;;
22060;SDS011;11194;48.092;-1.382;2023-02-04T06:40:14;12.75;;;11.57;;
22060;SDS011;11194;48.092;-1.382;2023-02-04T06:42:41;12.60;;;11.55;;
22060;SDS011;11194;48.092;-1.382;2023-02-04T06:45:07;12.63;;;11.50;;
22060;SDS011;11194;48.092;-1.382;2023-02-04T06:47:33;13.82;;;12.93;;
22060;SDS011;11194;48.092;-1.382;2023-02-04T06:49:59;14.93;;;13.88;;
22060;SDS011;11194;48.092;-1.382;2023-02-04T06:52:25;15.02;;;14.02;;
22060;SDS011;11194;48.092;-1.382;2023-02-04T06:54:51;15.90;;;14.60;;
22060;SDS011;11194;48.092;-1.382;2023-02-04T06:57:17;14.88;;;13.77;;
22060;SDS011;11194;48.092;-1.382;2023-02-04T06:59:43;17.80;;;16.83;;
22060;SDS011;11194;48.092;-1.382;2023-02-04T07:02:11;16.90;;;15.80;;
22060;SDS011;11194;48.092;-1.382;2023-02-04T07:04:37;15.65;;;14.70;;
22060;SDS011;11194;48.092;-1.382;2023-02-04T07:07:03;14.85;;;13.98;;
22060;SDS011;11194;48.092;-1.382;2023-02-04T07:09:29;13.77;;;12.77;;
22060;SDS011;11194;48.092;-1.382;2023-02-04T07:11:55;13.13;;;12.13;;
22060;SDS011;11194;48.092;-1.382;2023-02-04T07:14:21;12.48;;;11.57;;
22060;SDS011;11194;48.092;-1.382;2023-02-04T07:16:47;11.23;;;10.23;;
22060;SDS011;11194;48.092;-1.382;2023-02-04T07:19:13;11.20;;;10.40;;
22060;SDS011;11194;48.092;-1.382;2023-02-04T07:21:39;12.40;;;11.40;;
22060;SDS011;11194;48.092;-1.382;2023-02-04T07:24:05;12.63;;;11.73;;
22060;SDS011;11194;48.092;-1.382;2023-02-04T07:26:31;12.98;;;11.95;;
22060;SDS011;11194;48.092;-1.382;2023-02-04T07:28:58;11.98;;;11.05;;
22060;SDS011;11194;48.092;-1.382;2023-02-04T07:31:25;13.30;;;11.63;;
22060;SDS011;11194;48.092;-1.382;2023-02-04T07:33:52;13.63;;;12.55;;
22060;SDS011;11194;48.092;-1.382;2023-02-04T07:36:18;14.02;;;12.63;;
22060;SDS011;11194;48.092;-1.382;2023-02-04T07:38:44;14.10;;;13.00;;
22060;SDS011;11194;48.092;-1.382;2023-02-04T07:41:10;15.20;;;13.85;;
22060;SDS011;11194;48.092;-1.382;2023-02-04T07:43:36;15.15;;;13.65;;
22060;SDS011;11194;48.092;-1.382;2023-02-04T07:46:02;16.70;;;15.27;;
22060;SDS011;11194;48.092;-1.382;2023-02-04T07:48:28;16.30;;;14.98;;
22060;SDS011;11194;48.092;-1.382;2023-02-04T07:50:54;15.90;;;14.40;;
22060;SDS011;11194;48.092;-1.382;2023-02-04T07:53:20;17.70;;;16.05;;
22060;SDS011;11194;48.092;-1.382;2023-02-04T07:55:46;18.35;;;16.90;;
22060;SDS011;11194;48.092;-1.382;2023-02-04T07:58:12;18.23;;;16.80;;
22060;SDS011;11194;48.092;-1.382;2023-02-04T08:00:38;17.65;;;16.05;;
22060;SDS011;11194;48.092;-1.382;2023-02-04T08:03:04;17.00;;;15.65;;
22060;SDS011;11194;48.092;-1.382;2023-02-04T08:05:30;17.95;;;16.40;;
22060;SDS011;11194;48.092;-1.382;2023-02-04T08:07:56;18.27;;;16.77;;
22060;SDS011;11194;48.092;-1.382;2023-02-04T08:10:22;18.20;;;16.70;;
22060;SDS011;11194;48.092;-1.382;2023-02-04T08:12:48;18.38;;;16.77;;
22060;SDS011;11194;48.092;-1.382;2023-02-04T08:15:14;19.80;;;18.08;;
22060;SDS011;11194;48.092;-1.382;2023-02-04T08:17:40;19.30;;;17.60;;
22060;SDS011;11194;48.092;-1.382;2023-02-04T08:20:07;18.73;;;17.10;;
22060;SDS011;11194;48.092;-1.382;2023-02-04T08:22:33;17.08;;;15.48;;
22060;SDS011;11194;48.092;-1.382;2023-02-04T08:24:59;20.48;;;18.65;;
22060;SDS011;11194;48.092;-1.382;2023-02-04T08:27:25;22.48;;;20.30;;
22060;SDS011;11194;48.092;-1.382;2023-02-04T08:29:51;19.75;;;17.80;;
22060;SDS011;11194;48.092;-1.382;2023-02-04T08:32:19;23.52;;;21.35;;
22060;SDS011;11194;48.092;-1.382;2023-02-04T08:34:45;24.08;;;22.30;;
22060;SDS011;11194;48.092;-1.382;2023-02-04T08:37:12;24.95;;;23.23;;
22060;SDS011;11194;48.092;-1.382;2023-02-04T08:39:38;25.95;;;23.80;;
22060;SDS011;11194;48.092;-1.382;2023-02-04T08:42:09;24.23;;;22.52;;
22060;SDS011;11194;48.092;-1.382;2023-02-04T08:44:35;25.70;;;24.00;;
22060;SDS011;11194;48.092;-1.382;2023-02-04T08:47:01;26.23;;;24.33;;
22060;SDS011;11194;48.092;-1.382;2023-02-04T08:49:28;23.90;;;22.17;;
22060;SDS011;11194;48.092;-1.382;2023-02-04T08:51:54;23.25;;;21.60;;
22060;SDS011;11194;48.092;-1.382;2023-02-04T08:54:20;23.92;;;22.33;;
22060;SDS011;11194;48.092;-1.382;2023-02-04T08:56:46;28.25;;;26.35;;
22060;SDS011;11194;48.092;-1.382;2023-02-04T08:59:12;30.02;;;27.63;;
22060;SDS011;11194;48.092;-1.382;2023-02-04T09:01:38;23.42;;;21.35;;
22060;SDS011;11194;48.092;-1.382;2023-02-04T09:04:04;20.08;;;18.58;;
22060;SDS011;11194;48.092;-1.382;2023-02-04T09:06:30;21.08;;;19.48;;
22060;SDS011;11194;48.092;-1.382;2023-02-04T09:08:56;23.38;;;21.67;;
22060;SDS011;11194;48.092;-1.382;2023-02-04T09:11:22;22.40;;;21.00;;
22060;SDS011;11194;48.092;-1.382;2023-02-04T09:13:48;20.08;;;18.67;;
22060;SDS011;11194;48.092;-1.382;2023-02-04T09:16:14;20.13;;;18.83;;
22060;SDS011;11194;48.092;-1.382;2023-02-04T09:18:42;20.42;;;19.05;;
22060;SDS011;11194;48.092;-1.382;2023-02-04T09:21:08;21.63;;;20.23;;
22060;SDS011;11194;48.092;-1.382;2023-02-04T09:23:34;19.55;;;18.30;;
22060;SDS011;11194;48.092;-1.382;2023-02-04T09:26:00;20.95;;;19.50;;
22060;SDS011;11194;48.092;-1.382;2023-02-04T09:28:28;21.08;;;19.77;;
22060;SDS011;11194;48.092;-1.382;2023-02-04T09:30:54;19.17;;;17.77;;
22060;SDS011;11194;48.092;-1.382;2023-02-04T09:33:20;26.15;;;24.15;;
22060;SDS011;11194;48.092;-1.382;2023-02-04T09:35:47;26.65;;;24.50;;
22060;SDS011;11194;48.092;-1.382;2023-02-04T09:38:14;22.00;;;20.50;;
22060;SDS011;11194;48.092;-1.382;2023-02-04T09:40:41;20.50;;;18.98;;
22060;SDS011;11194;48.092;-1.382;2023-02-04T09:43:08;20.48;;;19.02;;
22060;SDS011;11194;48.092;-1.382;2023-02-04T09:45:35;21.10;;;19.20;;
22060;SDS011;11194;48.092;-1.382;2023-02-04T09:48:02;20.00;;;18.50;;
22060;SDS011;11194;48.092;-1.382;2023-02-04T09:50:29;18.00;;;16.52;;
22060;SDS011;11194;48.092;-1.382;2023-02-04T09:53:03;18.65;;;17.15;;
22060;SDS011;11194;48.092;-1.382;2023-02-04T09:55:31;16.40;;;15.20;;
22060;SDS011;11194;48.092;-1.382;2023-02-04T09:57:57;13.98;;;12.90;;
22060;SDS011;11194;48.092;-1.382;2023-02-04T10:00:25;15.15;;;14.05;;
22060;SDS011;11194;48.092;-1.382;2023-02-04T10:02:52;11.23;;;10.23;;
22060;SDS011;11194;48.092;-1.382;2023-02-04T10:05:23;9.93;;;9.10;;
22060;SDS011;11194;48.092;-1.382;2023-02-04T10:07:52;9.13;;;7.85;;
22060;SDS011;11194;48.092;-1.382;2023-02-04T10:10:19;8.40;;;7.55;;
22060;SDS011;11194;48.092;-1.382;2023-02-04T10:12:46;8.20;;;7.40;;
22060;SDS011;11194;48.092;-1.382;2023-02-04T10:15:13;7.47;;;6.88;;
22060;SDS011;11194;48.092;-1.382;2023-02-04T10:17:40;8.48;;;7.43;;
22060;SDS011;11194;48.092;-1.382;2023-02-04T10:20:13;8.85;;;7.97;;
22060;SDS011;11194;48.092;-1.382;2023-02-04T10:22:39;10.20;;;9.30;;
22060;SDS011;11194;48.092;-1.382;2023-02-04T10:25:16;9.73;;;8.93;;
22060;SDS011;11194;48.092;-1.382;2023-02-04T10:27:46;9.20;;;8.50;;
22060;SDS011;11194;48.092;-1.382;2023-02-04T10:30:17;8.63;;;7.60;;
22060;SDS011;11194;48.092;-1.382;2023-02-04T10:32:44;7.93;;;7.22;;
22060;SDS011;11194;48.092;-1.382;2023-02-04T10:35:12;8.43;;;7.72;;
22060;SDS011;11194;48.092;-1.382;2023-02-04T10:37:38;7.90;;;7.13;;
22060;SDS011;11194;48.092;-1.382;2023-02-04T10:40:05;7.85;;;7.15;;
22060;SDS011;11194;48.092;-1.382;2023-02-04T10:42:31;9.88;;;8.00;;
22060;SDS011;11194;48.092;-1.382;2023-02-04T10:44:57;9.65;;;8.85;;
22060;SDS011;11194;48.092;-1.382;2023-02-04T10:47:24;11.30;;;10.50;;
22060;SDS011;11194;48.092;-1.382;2023-02-04T10:49:52;10.57;;;9.57;;
22060;SDS011;11194;48.092;-1.382;2023-02-04T10:52:18;11.23;;;10.27;;
22060;SDS011;11194;48.092;-1.382;2023-02-04T10:54:46;12.55;;;11.45;;
22060;SDS011;11194;48.092;-1.382;2023-02-04T10:59:41;8.85;;;7.50;;
22060;SDS011;11194;48.092;-1.382;2023-02-04T11:04:51;6.55;;;5.95;;
22060;SDS011;11194;48.092;-1.382;2023-02-04T11:07:18;6.78;;;5.00;;
22060;SDS011;11194;48.092;-1.382;2023-02-04T11:09:44;6.85;;;5.72;;
22060;SDS011;11194;48.092;-1.382;2023-02-04T11:12:20;8.52;;;5.88;;
22060;SDS011;11194;48.092;-1.382;2023-02-04T11:14:56;9.48;;;7.63;;
22060;SDS011;11194;48.092;-1.382;2023-02-04T11:17:28;7.78;;;6.63;;
22060;SDS011;11194;48.092;-1.382;2023-02-04T11:19:55;8.18;;;5.47;;
22060;SDS011;11194;48.092;-1.382;2023-02-04T11:22:22;8.02;;;7.32;;
22060;SDS011;11194;48.092;-1.382;2023-02-04T11:24:49;9.02;;;8.23;;
22060;SDS011;11194;48.092;-1.382;2023-02-04T11:29:46;6.60;;;6.00;;
22060;SDS011;11194;48.092;-1.382;2023-02-04T11:32:32;7.80;;;7.10;;
22060;SDS011;11194;48.092;-1.382;2023-02-04T11:35:32;8.40;;;6.53;;
22060;SDS011;11194;48.092;-1.382;2023-02-04T11:37:52;8.52;;;6.22;;
22060;SDS011;11194;48.092;-1.382;2023-02-04T11:40:20;8.25;;;7.45;;
22060;SDS011;11194;48.092;-1.382;2023-02-04T11:42:47;7.28;;;6.53;;
22060;SDS011;11194;48.092;-1.382;2023-02-04T11:47:39;7.65;;;6.95;;
22060;SDS011;11194;48.092;-1.382;2023-02-04T11:50:20;7.80;;;6.45;;
22060;SDS011;11194;48.092;-1.382;2023-02-04T11:52:46;7.50;;;6.72;;
22060;SDS011;11194;48.092;-1.382;2023-02-04T11:55:12;8.43;;;7.38;;
22060;SDS011;11194;48.092;-1.382;2023-02-04T11:57:39;5.95;;;5.35;;
22060;SDS011;11194;48.092;-1.382;2023-02-04T12:00:11;7.25;;;6.50;;
22060;SDS011;11194;48.092;-1.382;2023-02-04T12:02:45;5.68;;;5.05;;
22060;SDS011;11194;48.092;-1.382;2023-02-04T12:05:13;6.15;;;5.55;;
22060;SDS011;11194;48.092;-1.382;2023-02-04T12:07:39;6.75;;;6.05;;
22060;SDS011;11194;48.092;-1.382;2023-02-04T12:10:13;7.63;;;6.93;;
22060;SDS011;11194;48.092;-1.382;2023-02-04T12:12:41;8.45;;;7.85;;
22060;SDS011;11194;48.092;-1.382;2023-02-04T12:15:41;9.07;;;8.27;;
22060;SDS011;11194;48.092;-1.382;2023-02-04T12:18:01;9.57;;;8.77;;
22060;SDS011;11194;48.092;-1.382;2023-02-04T12:20:27;10.38;;;9.48;;
22060;SDS011;11194;48.092;-1.382;2023-02-04T12:22:53;9.90;;;9.10;;
22060;SDS011;11194;48.092;-1.382;2023-02-04T12:25:19;8.52;;;7.63;;
22060;SDS011;11194;48.092;-1.382;2023-02-04T12:27:45;8.88;;;8.07;;
22060;SDS011;11194;48.092;-1.382;2023-02-04T12:30:11;7.72;;;7.03;;
22060;SDS011;11194;48.092;-1.382;2023-02-04T12:32:37;7.85;;;7.35;;
22060;SDS011;11194;48.092;-1.382;2023-02-04T12:35:04;8.45;;;7.88;;
22060;SDS011;11194;48.092;-1.382;2023-02-04T12:37:30;6.60;;;5.95;;
22060;SDS011;11194;48.092;-1.382;2023-02-04T12:39:56;7.03;;;6.32;;
22060;SDS011;11194;48.092;-1.382;2023-02-04T12:42:22;5.53;;;4.47;;
22060;SDS011;11194;48.092;-1.382;2023-02-04T12:44:48;5.60;;;5.05;;
22060;SDS011;11194;48.092;-1.382;2023-02-04T12:47:14;5.85;;;5.35;;
22060;SDS011;11194;48.092;-1.382;2023-02-04T12:49:40;5.15;;;4.75;;
22060;SDS011;11194;48.092;-1.382;2023-02-04T12:52:07;5.25;;;4.75;;
22060;SDS011;11194;48.092;-1.382;2023-02-04T12:54:33;6.13;;;5.53;;
22060;SDS011;11194;48.092;-1.382;2023-02-04T12:57:00;5.78;;;4.45;;
22060;SDS011;11194;48.092;-1.382;2023-02-04T12:59:26;6.70;;;6.10;;
22060;SDS011;11194;48.092;-1.382;2023-02-04T13:01:54;4.93;;;4.15;;
22060;SDS011;11194;48.092;-1.382;2023-02-04T13:04:20;5.60;;;4.35;;
22060;SDS011;11194;48.092;-1.382;2023-02-04T13:06:47;6.15;;;4.72;;
22060;SDS011;11194;48.092;-1.382;2023-02-04T13:09:13;6.03;;;4.75;;
22060;SDS011;11194;48.092;-1.382;2023-02-04T13:11:39;6.43;;;4.80;;
22060;SDS011;11194;48.092;-1.382;2023-02-04T13:14:05;6.25;;;4.15;;
22060;SDS011;11194;48.092;-1.382;2023-02-04T13:16:31;4.65;;;3.67;;
22060;SDS011;11194;48.092;-1.382;2023-02-04T13:18:57;4.45;;;3.78;;
22060;SDS011;11194;48.092;-1.382;2023-02-04T13:21:23;3.63;;;3.30;;
22060;SDS011;11194;48.092;-1.382;2023-02-04T13:23:49;3.47;;;3.17;;
22060;SDS011;11194;48.092;-1.382;2023-02-04T13:26:15;4.97;;;3.97;;
22060;SDS011;11194;48.092;-1.382;2023-02-04T13:28:41;4.45;;;3.42;;
22060;SDS011;11194;48.092;-1.382;2023-02-04T13:31:07;4.15;;;3.10;;
22060;SDS011;11194;48.092;-1.382;2023-02-04T13:33:33;5.43;;;3.90;;
22060;SDS011;11194;48.092;-1.382;2023-02-04T13:35:59;4.90;;;3.40;;
22060;SDS011;11194;48.092;-1.382;2023-02-04T13:38:25;5.10;;;3.28;;
22060;SDS011;11194;48.092;-1.382;2023-02-04T13:40:51;4.88;;;3.38;;
22060;SDS011;11194;48.092;-1.382;2023-02-04T13:43:17;7.68;;;4.00;;
22060;SDS011;11194;48.092;-1.382;2023-02-04T13:45:43;5.03;;;3.65;;
22060;SDS011;11194;48.092;-1.382;2023-02-04T13:48:12;3.67;;;2.90;;
22060;SDS011;11194;48.092;-1.382;2023-02-04T13:50:38;3.28;;;2.97;;
22060;SDS011;11194;48.092;-1.382;2023-02-04T13:53:04;4.95;;;3.17;;
22060;SDS011;11194;48.092;-1.382;2023-02-04T13:55:30;3.15;;;2.60;;
22060;SDS011;11194;48.092;-1.382;2023-02-04T13:57:56;1.98;;;1.67;;
22060;SDS011;11194;48.092;-1.382;2023-02-04T14:00:22;3.47;;;2.00;;
22060;SDS011;11194;48.092;-1.382;2023-02-04T14:02:48;3.17;;;2.35;;
22060;SDS011;11194;48.092;-1.382;2023-02-04T14:05:14;4.68;;;2.60;;
22060;SDS011;11194;48.092;-1.382;2023-02-04T14:07:40;2.58;;;2.22;;
22060;SDS011;11194;48.092;-1.382;2023-02-04T14:10:07;3.47;;;2.45;;
22060;SDS011;11194;48.092;-1.382;2023-02-04T14:12:33;5.15;;;2.72;;
22060;SDS011;11194;48.092;-1.382;2023-02-04T14:14:59;4.40;;;2.97;;
22060;SDS011;11194;48.092;-1.382;2023-02-04T14:17:25;5.63;;;2.80;;
22060;SDS011;11194;48.092;-1.382;2023-02-04T14:19:51;4.18;;;2.30;;
22060;SDS011;11194;48.092;-1.382;2023-02-04T14:22:17;6.00;;;2.88;;
22060;SDS011;11194;48.092;-1.382;2023-02-04T14:24:43;4.68;;;3.05;;
22060;SDS011;11194;48.092;-1.382;2023-02-04T14:27:11;4.45;;;3.88;;
22060;SDS011;11194;48.092;-1.382;2023-02-04T14:29:37;5.57;;;4.75;;
22060;SDS011;11194;48.092;-1.382;2023-02-04T14:32:03;5.95;;;4.72;;
22060;SDS011;11194;48.092;-1.382;2023-02-04T14:34:29;6.25;;;4.97;;
22060;SDS011;11194;48.092;-1.382;2023-02-04T14:36:55;6.90;;;4.55;;
22060;SDS011;11194;48.092;-1.382;2023-02-04T14:39:21;5.88;;;4.68;;
22060;SDS011;11194;48.092;-1.382;2023-02-04T14:41:47;5.65;;;5.03;;
22060;SDS011;11194;48.092;-1.382;2023-02-04T14:44:13;4.90;;;4.40;;
22060;SDS011;11194;48.092;-1.382;2023-02-04T14:46:44;5.22;;;4.28;;
22060;SDS011;11194;48.092;-1.382;2023-02-04T14:49:12;5.40;;;4.28;;
22060;SDS011;11194;48.092;-1.382;2023-02-04T14:51:38;5.90;;;4.97;;
22060;SDS011;11194;48.092;-1.382;2023-02-04T14:54:04;6.05;;;4.10;;
22060;SDS011;11194;48.092;-1.382;2023-02-04T14:56:30;5.15;;;3.17;;
22060;SDS011;11194;48.092;-1.382;2023-02-04T14:58:56;3.28;;;2.65;;
22060;SDS011;11194;48.092;-1.382;2023-02-04T15:01:22;4.53;;;2.47;;
22060;SDS011;11194;48.092;-1.382;2023-02-04T15:03:48;3.05;;;2.05;;
22060;SDS011;11194;48.092;-1.382;2023-02-04T15:06:15;3.35;;;1.50;;
22060;SDS011;11194;48.092;-1.382;2023-02-04T15:08:41;3.55;;;1.50;;
22060;SDS011;11194;48.092;-1.382;2023-02-04T15:11:08;2.17;;;1.60;;
22060;SDS011;11194;48.092;-1.382;2023-02-04T15:13:34;1.92;;;1.60;;
22060;SDS011;11194;48.092;-1.382;2023-02-04T15:16:01;3.00;;;1.85;;
22060;SDS011;11194;48.092;-1.382;2023-02-04T15:18:27;2.78;;;1.73;;
22060;SDS011;11194;48.092;-1.382;2023-02-04T15:20:53;2.25;;;1.58;;
22060;SDS011;11194;48.092;-1.382;2023-02-04T15:23:19;2.88;;;1.30;;
22060;SDS011;11194;48.092;-1.382;2023-02-04T15:25:45;1.55;;;1.20;;
22060;SDS011;11194;48.092;-1.382;2023-02-04T15:28:12;5.95;;;1.90;;
22060;SDS011;11194;48.092;-1.382;2023-02-04T15:30:38;5.38;;;2.08;;
22060;SDS011;11194;48.092;-1.382;2023-02-04T15:33:04;78.18;;;13.85;;
22060;SDS011;11194;48.092;-1.382;2023-02-04T15:35:30;6.53;;;3.40;;
22060;SDS011;11194;48.092;-1.382;2023-02-04T15:37:56;10.48;;;4.75;;
22060;SDS011;11194;48.092;-1.382;2023-02-04T15:40:22;6.15;;;3.60;;
22060;SDS011;11194;48.092;-1.382;2023-02-04T15:42:48;59.10;;;14.35;;
22060;SDS011;11194;48.092;-1.382;2023-02-04T15:45:14;5.60;;;2.80;;
22060;SDS011;11194;48.092;-1.382;2023-02-04T15:47:40;3.30;;;2.20;;
22060;SDS011;11194;48.092;-1.382;2023-02-04T15:50:06;2.80;;;2.00;;
22060;SDS011;11194;48.092;-1.382;2023-02-04T15:52:34;2.70;;;2.05;;
22060;SDS011;11194;48.092;-1.382;2023-02-04T15:55:00;3.95;;;2.38;;
22060;SDS011;11194;48.092;-1.382;2023-02-04T15:57:26;3.60;;;2.72;;
22060;SDS011;11194;48.092;-1.382;2023-02-04T15:59:52;7.07;;;3.67;;
22060;SDS011;11194;48.092;-1.382;2023-02-04T16:02:19;4.25;;;3.67;;
22060;SDS011;11194;48.092;-1.382;2023-02-04T16:04:45;6.20;;;3.67;;
22060;SDS011;11194;48.092;-1.382;2023-02-04T16:07:11;4.13;;;3.70;;
22060;SDS011;11194;48.092;-1.382;2023-02-04T16:09:37;4.60;;;3.17;;
22060;SDS011;11194;48.092;-1.382;2023-02-04T16:12:04;5.38;;;2.83;;
22060;SDS011;11194;48.092;-1.382;2023-02-04T16:14:30;6.88;;;2.90;;
22060;SDS011;11194;48.092;-1.382;2023-02-04T16:16:56;5.65;;;3.70;;
22060;SDS011;11194;48.092;-1.382;2023-02-04T16:19:22;6.00;;;3.17;;
22060;SDS011;11194;48.092;-1.382;2023-02-04T16:21:48;3.80;;;3.30;;
22060;SDS011;11194;48.092;-1.382;2023-02-04T16:24:14;4.72;;;3.00;;
22060;SDS011;11194;48.092;-1.382;2023-02-04T16:26:42;6.80;;;3.83;;
22060;SDS011;11194;48.092;-1.382;2023-02-04T16:29:08;5.85;;;4.05;;
22060;SDS011;11194;48.092;-1.382;2023-02-04T16:31:34;6.72;;;4.85;;
22060;SDS011;11194;48.092;-1.382;2023-02-04T16:34:00;5.85;;;3.90;;
22060;SDS011;11194;48.092;-1.382;2023-02-04T16:36:26;5.25;;;4.20;;
22060;SDS011;11194;48.092;-1.382;2023-02-04T16:38:52;8.45;;;4.97;;
22060;SDS011;11194;48.092;-1.382;2023-02-04T16:41:18;8.43;;;4.45;;
22060;SDS011;11194;48.092;-1.382;2023-02-04T16:43:44;4.22;;;3.83;;
22060;SDS011;11194;48.092;-1.382;2023-02-04T16:46:10;6.32;;;4.70;;
22060;SDS011;11194;48.092;-1.382;2023-02-04T16:48:39;8.38;;;5.28;;
22060;SDS011;11194;48.092;-1.382;2023-02-04T16:51:05;7.00;;;4.95;;
22060;SDS011;11194;48.092;-1.382;2023-02-04T16:53:31;9.65;;;5.03;;
22060;SDS011;11194;48.092;-1.382;2023-02-04T16:55:57;6.63;;;5.70;;
22060;SDS011;11194;48.092;-1.382;2023-02-04T16:58:23;9.52;;;5.57;;
22060;SDS011;11194;48.092;-1.382;2023-02-04T17:00:50;7.93;;;6.35;;
22060;SDS011;11194;48.092;-1.382;2023-02-04T17:03:16;9.18;;;6.57;;
22060;SDS011;11194;48.092;-1.382;2023-02-04T17:05:42;10.10;;;7.93;;